sensor_id;sensor_type;location;lat;lon;timestamp;P1;durP1;ratioP1;P2;durP2;ratioP2
52542;SDS011;38449;52.696;6.186;2023-07-09T00:01:12;13.20;;;9.45;;
52542;SDS011;38449;52.696;6.186;2023-07-09T00:03:41;11.27;;;9.93;;
52542;SDS011;38449;52.696;6.186;2023-07-09T00:06:07;12.98;;;9.50;;
52542;SDS011;38449;52.696;6.186;2023-07-09T00:08:34;11.20;;;9.00;;
52542;SDS011;38449;52.696;6.186;2023-07-09T00:11:01;11.40;;;9.60;;
52542;SDS011;38449;52.696;6.186;2023-07-09T00:13:27;13.45;;;9.65;;
52542;SDS011;38449;52.696;6.186;2023-07-09T00:15:58;11.95;;;9.40;;
52542;SDS011;38449;52.696;6.186;2023-07-09T00:18:29;14.60;;;9.23;;
52542;SDS011;38449;52.696;6.186;2023-07-09T00:20:55;13.35;;;9.70;;
52542;SDS011;38449;52.696;6.186;2023-07-09T00:23:21;11.77;;;9.65;;
52542;SDS011;38449;52.696;6.186;2023-07-09T00:25:48;12.25;;;9.35;;
52542;SDS011;38449;52.696;6.186;2023-07-09T00:28:15;11.13;;;9.13;;
52542;SDS011;38449;52.696;6.186;2023-07-09T00:30:46;11.32;;;9.45;;
52542;SDS011;38449;52.696;6.186;2023-07-09T00:33:18;11.55;;;9.32;;
52542;SDS011;38449;52.696;6.186;2023-07-09T00:35:45;11.15;;;9.70;;
52542;SDS011;38449;52.696;6.186;2023-07-09T00:38:19;12.20;;;9.32;;
52542;SDS011;38449;52.696;6.186;2023-07-09T00:43:25;11.52;;;9.73;;
52542;SDS011;38449;52.696;6.186;2023-07-09T00:46:16;11.93;;;9.10;;
52542;SDS011;38449;52.696;6.186;2023-07-09T00:48:58;11.15;;;9.30;;
52542;SDS011;38449;52.696;6.186;2023-07-09T00:51:30;11.15;;;9.07;;
52542;SDS011;38449;52.696;6.186;2023-07-09T00:54:01;10.70;;;9.52;;
52542;SDS011;38449;52.696;6.186;2023-07-09T00:56:35;12.77;;;9.85;;
52542;SDS011;38449;52.696;6.186;2023-07-09T00:59:06;11.65;;;9.95;;
52542;SDS011;38449;52.696;6.186;2023-07-09T01:01:36;13.25;;;9.45;;
52542;SDS011;38449;52.696;6.186;2023-07-09T01:04:06;12.80;;;9.00;;
52542;SDS011;38449;52.696;6.186;2023-07-09T01:06:39;11.15;;;9.75;;
52542;SDS011;38449;52.696;6.186;2023-07-09T01:09:10;12.27;;;9.32;;
52542;SDS011;38449;52.696;6.186;2023-07-09T01:11:36;11.32;;;9.80;;
52542;SDS011;38449;52.696;6.186;2023-07-09T01:14:04;10.65;;;9.20;;
52542;SDS011;38449;52.696;6.186;2023-07-09T01:16:34;11.85;;;9.13;;
52542;SDS011;38449;52.696;6.186;2023-07-09T01:19:04;12.32;;;9.98;;
52542;SDS011;38449;52.696;6.186;2023-07-09T01:21:31;11.57;;;10.05;;
52542;SDS011;38449;52.696;6.186;2023-07-09T01:23:58;11.70;;;9.82;;
52542;SDS011;38449;52.696;6.186;2023-07-09T01:26:26;10.95;;;9.35;;
52542;SDS011;38449;52.696;6.186;2023-07-09T01:28:53;11.52;;;10.32;;
52542;SDS011;38449;52.696;6.186;2023-07-09T01:31:21;12.27;;;9.77;;
52542;SDS011;38449;52.696;6.186;2023-07-09T01:33:49;13.70;;;9.88;;
52542;SDS011;38449;52.696;6.186;2023-07-09T01:36:17;12.50;;;9.98;;
52542;SDS011;38449;52.696;6.186;2023-07-09T01:38:49;12.82;;;10.57;;
52542;SDS011;38449;52.696;6.186;2023-07-09T01:41:16;12.13;;;10.07;;
52542;SDS011;38449;52.696;6.186;2023-07-09T01:43:51;13.35;;;10.40;;
52542;SDS011;38449;52.696;6.186;2023-07-09T01:46:18;15.20;;;10.00;;
52542;SDS011;38449;52.696;6.186;2023-07-09T01:48:44;11.63;;;9.52;;
52542;SDS011;38449;52.696;6.186;2023-07-09T01:51:12;13.18;;;9.93;;
52542;SDS011;38449;52.696;6.186;2023-07-09T01:53:42;12.65;;;10.13;;
52542;SDS011;38449;52.696;6.186;2023-07-09T01:56:12;12.55;;;10.27;;
52542;SDS011;38449;52.696;6.186;2023-07-09T01:58:38;12.73;;;10.73;;
52542;SDS011;38449;52.696;6.186;2023-07-09T02:01:07;13.38;;;10.55;;
52542;SDS011;38449;52.696;6.186;2023-07-09T02:03:33;12.10;;;10.80;;
52542;SDS011;38449;52.696;6.186;2023-07-09T02:06:00;11.02;;;9.50;;
52542;SDS011;38449;52.696;6.186;2023-07-09T02:08:28;13.73;;;10.82;;
52542;SDS011;38449;52.696;6.186;2023-07-09T02:10:54;11.27;;;10.07;;
52542;SDS011;38449;52.696;6.186;2023-07-09T02:13:20;13.05;;;10.35;;
52542;SDS011;38449;52.696;6.186;2023-07-09T02:15:46;14.73;;;9.75;;
52542;SDS011;38449;52.696;6.186;2023-07-09T02:18:13;13.35;;;10.13;;
52542;SDS011;38449;52.696;6.186;2023-07-09T02:20:40;12.30;;;10.18;;
52542;SDS011;38449;52.696;6.186;2023-07-09T02:23:07;11.02;;;9.70;;
52542;SDS011;38449;52.696;6.186;2023-07-09T02:25:34;12.55;;;10.70;;
52542;SDS011;38449;52.696;6.186;2023-07-09T02:28:00;12.20;;;10.55;;
52542;SDS011;38449;52.696;6.186;2023-07-09T02:30:26;11.77;;;10.57;;
52542;SDS011;38449;52.696;6.186;2023-07-09T02:32:52;12.77;;;10.93;;
52542;SDS011;38449;52.696;6.186;2023-07-09T02:35:25;12.05;;;10.75;;
52542;SDS011;38449;52.696;6.186;2023-07-09T02:37:51;12.57;;;10.50;;
52542;SDS011;38449;52.696;6.186;2023-07-09T02:40:17;12.77;;;10.43;;
52542;SDS011;38449;52.696;6.186;2023-07-09T02:42:44;12.80;;;10.93;;
52542;SDS011;38449;52.696;6.186;2023-07-09T02:45:10;13.43;;;10.65;;
52542;SDS011;38449;52.696;6.186;2023-07-09T02:47:36;12.75;;;11.43;;
52542;SDS011;38449;52.696;6.186;2023-07-09T02:50:03;13.18;;;10.63;;
52542;SDS011;38449;52.696;6.186;2023-07-09T02:52:30;12.95;;;10.85;;
52542;SDS011;38449;52.696;6.186;2023-07-09T02:54:56;12.32;;;10.25;;
52542;SDS011;38449;52.696;6.186;2023-07-09T02:57:22;14.18;;;11.43;;
52542;SDS011;38449;52.696;6.186;2023-07-09T02:59:48;11.60;;;10.38;;
52542;SDS011;38449;52.696;6.186;2023-07-09T03:02:15;14.82;;;11.55;;
52542;SDS011;38449;52.696;6.186;2023-07-09T03:04:41;12.25;;;10.75;;
52542;SDS011;38449;52.696;6.186;2023-07-09T03:07:11;13.60;;;11.48;;
52542;SDS011;38449;52.696;6.186;2023-07-09T03:09:37;13.35;;;11.77;;
52542;SDS011;38449;52.696;6.186;2023-07-09T03:12:04;12.30;;;11.00;;
52542;SDS011;38449;52.696;6.186;2023-07-09T03:14:30;12.48;;;11.18;;
52542;SDS011;38449;52.696;6.186;2023-07-09T03:16:58;13.30;;;11.35;;
52542;SDS011;38449;52.696;6.186;2023-07-09T03:19:24;13.63;;;11.75;;
52542;SDS011;38449;52.696;6.186;2023-07-09T03:21:50;15.02;;;11.98;;
52542;SDS011;38449;52.696;6.186;2023-07-09T03:24:17;13.93;;;11.05;;
52542;SDS011;38449;52.696;6.186;2023-07-09T03:26:44;12.93;;;11.40;;
52542;SDS011;38449;52.696;6.186;2023-07-09T03:29:12;14.82;;;11.55;;
52542;SDS011;38449;52.696;6.186;2023-07-09T03:31:38;14.23;;;12.35;;
52542;SDS011;38449;52.696;6.186;2023-07-09T03:34:05;14.48;;;11.52;;
52542;SDS011;38449;52.696;6.186;2023-07-09T03:36:31;14.88;;;11.82;;
52542;SDS011;38449;52.696;6.186;2023-07-09T03:38:57;13.63;;;12.23;;
52542;SDS011;38449;52.696;6.186;2023-07-09T03:41:24;12.68;;;11.43;;
52542;SDS011;38449;52.696;6.186;2023-07-09T03:43:50;13.60;;;11.73;;
52542;SDS011;38449;52.696;6.186;2023-07-09T03:46:18;13.27;;;11.90;;
52542;SDS011;38449;52.696;6.186;2023-07-09T03:48:45;13.50;;;12.00;;
52542;SDS011;38449;52.696;6.186;2023-07-09T03:51:11;15.35;;;11.90;;
52542;SDS011;38449;52.696;6.186;2023-07-09T03:53:37;12.52;;;11.32;;
52542;SDS011;38449;52.696;6.186;2023-07-09T03:56:03;13.60;;;11.55;;
52542;SDS011;38449;52.696;6.186;2023-07-09T03:58:30;13.68;;;12.20;;
52542;SDS011;38449;52.696;6.186;2023-07-09T04:00:56;13.32;;;11.20;;
52542;SDS011;38449;52.696;6.186;2023-07-09T04:03:22;15.10;;;11.77;;
52542;SDS011;38449;52.696;6.186;2023-07-09T04:05:49;14.20;;;12.05;;
52542;SDS011;38449;52.696;6.186;2023-07-09T04:08:16;12.68;;;11.32;;
52542;SDS011;38449;52.696;6.186;2023-07-09T04:10:42;13.60;;;11.65;;
52542;SDS011;38449;52.696;6.186;2023-07-09T04:13:09;13.18;;;11.88;;
52542;SDS011;38449;52.696;6.186;2023-07-09T04:15:35;13.38;;;11.82;;
52542;SDS011;38449;52.696;6.186;2023-07-09T04:18:01;12.77;;;11.48;;
52542;SDS011;38449;52.696;6.186;2023-07-09T04:20:27;13.35;;;11.57;;
52542;SDS011;38449;52.696;6.186;2023-07-09T04:22:54;16.13;;;11.90;;
52542;SDS011;38449;52.696;6.186;2023-07-09T04:25:20;16.13;;;11.02;;
52542;SDS011;38449;52.696;6.186;2023-07-09T04:27:47;14.52;;;11.57;;
52542;SDS011;38449;52.696;6.186;2023-07-09T04:30:14;13.52;;;12.10;;
52542;SDS011;38449;52.696;6.186;2023-07-09T04:32:42;13.30;;;11.48;;
52542;SDS011;38449;52.696;6.186;2023-07-09T04:35:09;12.40;;;11.10;;
52542;SDS011;38449;52.696;6.186;2023-07-09T04:37:37;12.60;;;11.02;;
52542;SDS011;38449;52.696;6.186;2023-07-09T04:40:05;13.38;;;11.90;;
52542;SDS011;38449;52.696;6.186;2023-07-09T04:42:36;12.52;;;10.80;;
52542;SDS011;38449;52.696;6.186;2023-07-09T04:45:04;13.73;;;11.60;;
52542;SDS011;38449;52.696;6.186;2023-07-09T04:47:31;12.68;;;11.20;;
52542;SDS011;38449;52.696;6.186;2023-07-09T04:49:57;16.63;;;11.43;;
52542;SDS011;38449;52.696;6.186;2023-07-09T04:52:23;13.70;;;11.88;;
52542;SDS011;38449;52.696;6.186;2023-07-09T04:54:49;16.85;;;11.80;;
52542;SDS011;38449;52.696;6.186;2023-07-09T04:57:16;12.90;;;11.38;;
52542;SDS011;38449;52.696;6.186;2023-07-09T04:59:43;14.68;;;10.85;;
52542;SDS011;38449;52.696;6.186;2023-07-09T05:02:09;14.18;;;12.20;;
52542;SDS011;38449;52.696;6.186;2023-07-09T05:04:36;14.75;;;11.63;;
52542;SDS011;38449;52.696;6.186;2023-07-09T05:07:02;13.00;;;11.30;;
52542;SDS011;38449;52.696;6.186;2023-07-09T05:09:28;14.07;;;11.75;;
52542;SDS011;38449;52.696;6.186;2023-07-09T05:11:55;14.30;;;11.57;;
52542;SDS011;38449;52.696;6.186;2023-07-09T05:14:21;13.82;;;10.77;;
52542;SDS011;38449;52.696;6.186;2023-07-09T05:16:47;15.10;;;11.18;;
52542;SDS011;38449;52.696;6.186;2023-07-09T05:19:14;14.93;;;12.15;;
52542;SDS011;38449;52.696;6.186;2023-07-09T05:21:47;13.02;;;11.65;;
52542;SDS011;38449;52.696;6.186;2023-07-09T05:24:13;14.82;;;11.35;;
52542;SDS011;38449;52.696;6.186;2023-07-09T05:26:42;14.13;;;12.05;;
52542;SDS011;38449;52.696;6.186;2023-07-09T05:29:08;13.25;;;11.60;;
52542;SDS011;38449;52.696;6.186;2023-07-09T05:31:34;13.45;;;11.77;;
52542;SDS011;38449;52.696;6.186;2023-07-09T05:34:01;14.02;;;11.73;;
52542;SDS011;38449;52.696;6.186;2023-07-09T05:36:28;13.73;;;12.13;;
52542;SDS011;38449;52.696;6.186;2023-07-09T05:38:55;12.88;;;11.57;;
52542;SDS011;38449;52.696;6.186;2023-07-09T05:41:22;13.18;;;11.75;;
52542;SDS011;38449;52.696;6.186;2023-07-09T05:43:49;13.52;;;11.75;;
52542;SDS011;38449;52.696;6.186;2023-07-09T05:46:17;13.48;;;12.05;;
52542;SDS011;38449;52.696;6.186;2023-07-09T05:48:44;14.80;;;13.30;;
52542;SDS011;38449;52.696;6.186;2023-07-09T05:51:10;13.95;;;11.40;;
52542;SDS011;38449;52.696;6.186;2023-07-09T05:53:37;17.35;;;12.85;;
52542;SDS011;38449;52.696;6.186;2023-07-09T05:56:03;17.13;;;12.32;;
52542;SDS011;38449;52.696;6.186;2023-07-09T05:58:29;14.88;;;12.65;;
52542;SDS011;38449;52.696;6.186;2023-07-09T06:00:56;16.02;;;14.00;;
52542;SDS011;38449;52.696;6.186;2023-07-09T06:03:24;15.30;;;13.05;;
52542;SDS011;38449;52.696;6.186;2023-07-09T06:05:51;15.00;;;13.48;;
52542;SDS011;38449;52.696;6.186;2023-07-09T06:08:19;15.48;;;13.50;;
52542;SDS011;38449;52.696;6.186;2023-07-09T06:10:59;15.20;;;12.98;;
52542;SDS011;38449;52.696;6.186;2023-07-09T06:13:28;14.80;;;12.70;;
52542;SDS011;38449;52.696;6.186;2023-07-09T06:15:56;16.38;;;12.88;;
52542;SDS011;38449;52.696;6.186;2023-07-09T06:18:23;16.23;;;13.15;;
52542;SDS011;38449;52.696;6.186;2023-07-09T06:20:51;15.30;;;13.75;;
52542;SDS011;38449;52.696;6.186;2023-07-09T06:23:21;15.77;;;13.93;;
52542;SDS011;38449;52.696;6.186;2023-07-09T06:25:48;16.30;;;13.93;;
52542;SDS011;38449;52.696;6.186;2023-07-09T06:28:15;16.02;;;14.10;;
52542;SDS011;38449;52.696;6.186;2023-07-09T06:30:42;15.65;;;13.20;;
52542;SDS011;38449;52.696;6.186;2023-07-09T06:33:11;16.38;;;13.18;;
52542;SDS011;38449;52.696;6.186;2023-07-09T06:35:38;16.60;;;12.93;;
52542;SDS011;38449;52.696;6.186;2023-07-09T06:38:05;16.67;;;13.98;;
52542;SDS011;38449;52.696;6.186;2023-07-09T06:40:31;15.63;;;13.57;;
52542;SDS011;38449;52.696;6.186;2023-07-09T06:42:58;15.30;;;13.70;;
52542;SDS011;38449;52.696;6.186;2023-07-09T06:45:24;17.63;;;13.80;;
52542;SDS011;38449;52.696;6.186;2023-07-09T06:47:50;15.95;;;13.75;;
52542;SDS011;38449;52.696;6.186;2023-07-09T06:50:17;15.30;;;13.15;;
52542;SDS011;38449;52.696;6.186;2023-07-09T06:52:43;15.48;;;12.55;;
52542;SDS011;38449;52.696;6.186;2023-07-09T06:55:10;15.05;;;13.15;;
52542;SDS011;38449;52.696;6.186;2023-07-09T06:57:36;16.08;;;12.95;;
52542;SDS011;38449;52.696;6.186;2023-07-09T07:00:03;15.23;;;12.82;;
52542;SDS011;38449;52.696;6.186;2023-07-09T07:02:30;14.98;;;12.50;;
52542;SDS011;38449;52.696;6.186;2023-07-09T07:04:56;14.05;;;12.55;;
52542;SDS011;38449;52.696;6.186;2023-07-09T07:07:22;14.10;;;12.60;;
52542;SDS011;38449;52.696;6.186;2023-07-09T07:09:49;15.55;;;12.25;;
52542;SDS011;38449;52.696;6.186;2023-07-09T07:12:26;14.32;;;12.52;;
52542;SDS011;38449;52.696;6.186;2023-07-09T07:14:54;13.13;;;11.70;;
52542;SDS011;38449;52.696;6.186;2023-07-09T07:17:28;15.40;;;11.85;;
52542;SDS011;38449;52.696;6.186;2023-07-09T07:19:55;14.10;;;11.60;;
52542;SDS011;38449;52.696;6.186;2023-07-09T07:22:21;14.80;;;11.32;;
52542;SDS011;38449;52.696;6.186;2023-07-09T07:24:47;13.73;;;11.95;;
52542;SDS011;38449;52.696;6.186;2023-07-09T07:27:13;11.88;;;10.40;;
52542;SDS011;38449;52.696;6.186;2023-07-09T07:29:39;14.27;;;11.02;;
52542;SDS011;38449;52.696;6.186;2023-07-09T07:32:06;12.30;;;11.00;;
52542;SDS011;38449;52.696;6.186;2023-07-09T07:34:33;14.15;;;11.65;;
52542;SDS011;38449;52.696;6.186;2023-07-09T07:36:59;12.77;;;10.20;;
52542;SDS011;38449;52.696;6.186;2023-07-09T07:39:25;13.27;;;10.13;;
52542;SDS011;38449;52.696;6.186;2023-07-09T07:41:51;12.30;;;9.95;;
52542;SDS011;38449;52.696;6.186;2023-07-09T07:44:18;11.63;;;10.43;;
52542;SDS011;38449;52.696;6.186;2023-07-09T07:46:44;12.82;;;10.27;;
52542;SDS011;38449;52.696;6.186;2023-07-09T07:49:10;12.15;;;10.80;;
52542;SDS011;38449;52.696;6.186;2023-07-09T07:51:37;12.60;;;11.15;;
52542;SDS011;38449;52.696;6.186;2023-07-09T07:54:04;12.52;;;10.57;;
52542;SDS011;38449;52.696;6.186;2023-07-09T07:56:30;11.93;;;10.65;;
52542;SDS011;38449;52.696;6.186;2023-07-09T07:58:57;13.48;;;10.40;;
52542;SDS011;38449;52.696;6.186;2023-07-09T08:01:23;13.90;;;11.65;;
52542;SDS011;38449;52.696;6.186;2023-07-09T08:03:49;12.50;;;10.95;;
52542;SDS011;38449;52.696;6.186;2023-07-09T08:06:16;15.50;;;10.73;;
52542;SDS011;38449;52.696;6.186;2023-07-09T08:08:42;12.60;;;11.30;;
52542;SDS011;38449;52.696;6.186;2023-07-09T08:11:08;13.57;;;10.85;;
52542;SDS011;38449;52.696;6.186;2023-07-09T08:13:35;14.73;;;10.68;;
52542;SDS011;38449;52.696;6.186;2023-07-09T08:16:02;15.82;;;10.75;;
52542;SDS011;38449;52.696;6.186;2023-07-09T08:18:29;11.10;;;9.93;;
52542;SDS011;38449;52.696;6.186;2023-07-09T08:20:55;14.88;;;10.85;;
52542;SDS011;38449;52.696;6.186;2023-07-09T08:23:21;12.60;;;10.00;;
52542;SDS011;38449;52.696;6.186;2023-07-09T08:25:54;11.95;;;9.73;;
52542;SDS011;38449;52.696;6.186;2023-07-09T08:28:21;11.48;;;9.95;;
52542;SDS011;38449;52.696;6.186;2023-07-09T08:30:48;12.82;;;10.00;;
52542;SDS011;38449;52.696;6.186;2023-07-09T08:33:14;14.57;;;10.20;;
52542;SDS011;38449;52.696;6.186;2023-07-09T08:35:43;13.68;;;9.85;;
52542;SDS011;38449;52.696;6.186;2023-07-09T08:38:10;12.95;;;9.38;;
52542;SDS011;38449;52.696;6.186;2023-07-09T08:40:39;16.13;;;10.10;;
52542;SDS011;38449;52.696;6.186;2023-07-09T08:43:14;12.48;;;10.13;;
52542;SDS011;38449;52.696;6.186;2023-07-09T08:45:54;14.80;;;11.65;;
52542;SDS011;38449;52.696;6.186;2023-07-09T08:48:35;13.80;;;10.27;;
52542;SDS011;38449;52.696;6.186;2023-07-09T08:51:10;16.65;;;9.55;;
52542;SDS011;38449;52.696;6.186;2023-07-09T08:53:44;13.60;;;10.43;;
52542;SDS011;38449;52.696;6.186;2023-07-09T08:56:32;11.82;;;9.77;;
52542;SDS011;38449;52.696;6.186;2023-07-09T08:59:00;13.35;;;10.80;;
52542;SDS011;38449;52.696;6.186;2023-07-09T09:01:29;16.67;;;11.07;;
52542;SDS011;38449;52.696;6.186;2023-07-09T09:04:05;12.45;;;11.13;;
52542;SDS011;38449;52.696;6.186;2023-07-09T09:06:39;13.48;;;10.15;;
52542;SDS011;38449;52.696;6.186;2023-07-09T09:09:26;14.77;;;9.65;;
52542;SDS011;38449;52.696;6.186;2023-07-09T09:12:19;14.40;;;10.18;;
52542;SDS011;38449;52.696;6.186;2023-07-09T09:14:56;12.15;;;10.85;;
52542;SDS011;38449;52.696;6.186;2023-07-09T09:17:24;12.65;;;10.57;;
52542;SDS011;38449;52.696;6.186;2023-07-09T09:19:59;16.92;;;11.73;;
52542;SDS011;38449;52.696;6.186;2023-07-09T09:23:15;16.63;;;11.32;;
52542;SDS011;38449;52.696;6.186;2023-07-09T09:25:27;15.65;;;12.52;;
52542;SDS011;38449;52.696;6.186;2023-07-09T09:27:56;14.88;;;12.57;;
52542;SDS011;38449;52.696;6.186;2023-07-09T09:30:23;14.80;;;12.13;;
52542;SDS011;38449;52.696;6.186;2023-07-09T09:32:53;12.88;;;11.25;;
52542;SDS011;38449;52.696;6.186;2023-07-09T09:35:25;15.45;;;11.98;;
52542;SDS011;38449;52.696;6.186;2023-07-09T09:37:54;13.20;;;11.48;;
52542;SDS011;38449;52.696;6.186;2023-07-09T09:40:23;13.38;;;11.65;;
52542;SDS011;38449;52.696;6.186;2023-07-09T09:42:51;13.88;;;11.65;;
52542;SDS011;38449;52.696;6.186;2023-07-09T09:45:21;15.00;;;11.68;;
52542;SDS011;38449;52.696;6.186;2023-07-09T09:47:50;13.48;;;11.40;;
52542;SDS011;38449;52.696;6.186;2023-07-09T09:50:16;14.55;;;11.38;;
52542;SDS011;38449;52.696;6.186;2023-07-09T09:52:46;14.18;;;11.45;;
52542;SDS011;38449;52.696;6.186;2023-07-09T09:55:17;13.15;;;11.75;;
52542;SDS011;38449;52.696;6.186;2023-07-09T09:57:49;15.32;;;12.02;;
52542;SDS011;38449;52.696;6.186;2023-07-09T10:02:43;13.80;;;11.77;;
52542;SDS011;38449;52.696;6.186;2023-07-09T10:05:12;13.40;;;11.50;;
52542;SDS011;38449;52.696;6.186;2023-07-09T10:07:46;13.40;;;11.38;;
52542;SDS011;38449;52.696;6.186;2023-07-09T10:12:54;15.13;;;12.60;;
52542;SDS011;38449;52.696;6.186;2023-07-09T10:18:22;12.55;;;11.23;;
52542;SDS011;38449;52.696;6.186;2023-07-09T10:28:51;13.32;;;11.15;;
52542;SDS011;38449;52.696;6.186;2023-07-09T10:34:28;13.52;;;10.95;;
52542;SDS011;38449;52.696;6.186;2023-07-09T10:39:33;10.23;;;8.90;;
52542;SDS011;38449;52.696;6.186;2023-07-09T10:42:08;10.45;;;9.25;;
52542;SDS011;38449;52.696;6.186;2023-07-09T10:44:42;11.00;;;9.50;;
52542;SDS011;38449;52.696;6.186;2023-07-09T10:47:22;11.75;;;9.82;;
52542;SDS011;38449;52.696;6.186;2023-07-09T10:49:57;11.52;;;9.50;;
52542;SDS011;38449;52.696;6.186;2023-07-09T10:52:26;13.18;;;9.98;;
52542;SDS011;38449;52.696;6.186;2023-07-09T10:55:15;12.10;;;9.35;;
52542;SDS011;38449;52.696;6.186;2023-07-09T10:58:03;11.45;;;9.20;;
52542;SDS011;38449;52.696;6.186;2023-07-09T11:00:35;9.88;;;8.48;;
52542;SDS011;38449;52.696;6.186;2023-07-09T11:03:05;11.60;;;8.98;;
52542;SDS011;38449;52.696;6.186;2023-07-09T11:08:09;10.65;;;7.93;;
52542;SDS011;38449;52.696;6.186;2023-07-09T11:10:40;10.05;;;7.57;;
52542;SDS011;38449;52.696;6.186;2023-07-09T11:13:14;8.73;;;7.53;;
52542;SDS011;38449;52.696;6.186;2023-07-09T11:15:45;11.27;;;8.02;;
52542;SDS011;38449;52.696;6.186;2023-07-09T11:18:26;10.07;;;8.15;;
52542;SDS011;38449;52.696;6.186;2023-07-09T11:21:06;11.38;;;8.60;;
52542;SDS011;38449;52.696;6.186;2023-07-09T11:23:47;9.65;;;7.85;;
52542;SDS011;38449;52.696;6.186;2023-07-09T11:28:55;10.65;;;8.18;;
52542;SDS011;38449;52.696;6.186;2023-07-09T11:31:43;10.85;;;8.35;;
52542;SDS011;38449;52.696;6.186;2023-07-09T11:34:16;11.13;;;7.82;;
52542;SDS011;38449;52.696;6.186;2023-07-09T11:36:47;10.05;;;8.10;;
52542;SDS011;38449;52.696;6.186;2023-07-09T11:42:23;8.70;;;7.80;;
52542;SDS011;38449;52.696;6.186;2023-07-09T11:44:57;9.45;;;8.45;;
52542;SDS011;38449;52.696;6.186;2023-07-09T11:47:41;10.82;;;8.52;;
52542;SDS011;38449;52.696;6.186;2023-07-09T11:50:41;10.10;;;9.10;;
52542;SDS011;38449;52.696;6.186;2023-07-09T11:56:25;11.15;;;8.02;;
52542;SDS011;38449;52.696;6.186;2023-07-09T11:58:52;10.18;;;7.10;;
52542;SDS011;38449;52.696;6.186;2023-07-09T12:01:25;9.13;;;7.28;;
52542;SDS011;38449;52.696;6.186;2023-07-09T12:03:57;9.63;;;7.18;;
52542;SDS011;38449;52.696;6.186;2023-07-09T12:06:26;9.45;;;7.22;;
52542;SDS011;38449;52.696;6.186;2023-07-09T12:08:54;10.48;;;7.63;;
52542;SDS011;38449;52.696;6.186;2023-07-09T12:16:45;9.13;;;6.85;;
52542;SDS011;38449;52.696;6.186;2023-07-09T12:22:19;9.40;;;6.50;;
52542;SDS011;38449;52.696;6.186;2023-07-09T12:24:47;8.35;;;6.82;;
52542;SDS011;38449;52.696;6.186;2023-07-09T12:27:17;9.50;;;7.32;;
52542;SDS011;38449;52.696;6.186;2023-07-09T12:29:50;8.00;;;6.95;;
52542;SDS011;38449;52.696;6.186;2023-07-09T12:32:18;7.90;;;6.40;;
52542;SDS011;38449;52.696;6.186;2023-07-09T12:34:46;8.18;;;7.20;;
52542;SDS011;38449;52.696;6.186;2023-07-09T12:37:15;8.45;;;6.80;;
52542;SDS011;38449;52.696;6.186;2023-07-09T12:39:42;8.10;;;7.05;;
52542;SDS011;38449;52.696;6.186;2023-07-09T12:42:14;8.93;;;7.30;;
52542;SDS011;38449;52.696;6.186;2023-07-09T12:44:43;8.60;;;6.68;;
52542;SDS011;38449;52.696;6.186;2023-07-09T12:47:12;9.93;;;6.60;;
52542;SDS011;38449;52.696;6.186;2023-07-09T12:49:41;7.90;;;6.72;;
52542;SDS011;38449;52.696;6.186;2023-07-09T12:52:12;7.38;;;6.47;;
52542;SDS011;38449;52.696;6.186;2023-07-09T12:54:51;8.35;;;6.57;;
52542;SDS011;38449;52.696;6.186;2023-07-09T12:57:28;7.68;;;6.40;;
52542;SDS011;38449;52.696;6.186;2023-07-09T12:59:56;9.77;;;6.50;;
52542;SDS011;38449;52.696;6.186;2023-07-09T13:02:23;9.43;;;6.45;;
52542;SDS011;38449;52.696;6.186;2023-07-09T13:05:02;8.48;;;5.90;;
52542;SDS011;38449;52.696;6.186;2023-07-09T13:10:07;8.68;;;6.30;;
52542;SDS011;38449;52.696;6.186;2023-07-09T13:12:54;8.60;;;6.82;;
52542;SDS011;38449;52.696;6.186;2023-07-09T13:15:30;8.70;;;6.72;;
52542;SDS011;38449;52.696;6.186;2023-07-09T13:18:04;11.35;;;6.90;;
52542;SDS011;38449;52.696;6.186;2023-07-09T13:20:32;9.05;;;6.53;;
52542;SDS011;38449;52.696;6.186;2023-07-09T13:23:04;11.82;;;6.70;;
52542;SDS011;38449;52.696;6.186;2023-07-09T13:25:35;7.38;;;6.60;;
52542;SDS011;38449;52.696;6.186;2023-07-09T13:28:02;11.32;;;6.60;;
52542;SDS011;38449;52.696;6.186;2023-07-09T13:30:28;8.20;;;6.95;;
52542;SDS011;38449;52.696;6.186;2023-07-09T13:32:55;8.65;;;6.65;;
52542;SDS011;38449;52.696;6.186;2023-07-09T13:35:21;8.23;;;6.68;;
52542;SDS011;38449;52.696;6.186;2023-07-09T13:37:47;10.05;;;6.93;;
52542;SDS011;38449;52.696;6.186;2023-07-09T13:40:14;7.68;;;6.18;;
52542;SDS011;38449;52.696;6.186;2023-07-09T13:42:42;9.85;;;6.93;;
52542;SDS011;38449;52.696;6.186;2023-07-09T13:45:16;10.95;;;6.60;;
52542;SDS011;38449;52.696;6.186;2023-07-09T13:47:45;7.93;;;6.70;;
52542;SDS011;38449;52.696;6.186;2023-07-09T13:50:12;8.32;;;6.65;;
52542;SDS011;38449;52.696;6.186;2023-07-09T13:52:39;10.00;;;6.28;;
52542;SDS011;38449;52.696;6.186;2023-07-09T13:55:09;9.48;;;7.00;;
52542;SDS011;38449;52.696;6.186;2023-07-09T13:57:45;8.32;;;6.40;;
52542;SDS011;38449;52.696;6.186;2023-07-09T14:00:12;7.18;;;6.38;;
52542;SDS011;38449;52.696;6.186;2023-07-09T14:02:38;9.18;;;6.40;;
52542;SDS011;38449;52.696;6.186;2023-07-09T14:05:06;7.82;;;6.03;;
52542;SDS011;38449;52.696;6.186;2023-07-09T14:07:38;8.82;;;6.05;;
52542;SDS011;38449;52.696;6.186;2023-07-09T14:10:09;9.13;;;5.63;;
52542;SDS011;38449;52.696;6.186;2023-07-09T14:12:43;7.72;;;5.20;;
52542;SDS011;38449;52.696;6.186;2023-07-09T14:15:13;8.70;;;5.55;;
52542;SDS011;38449;52.696;6.186;2023-07-09T14:17:43;6.47;;;5.32;;
52542;SDS011;38449;52.696;6.186;2023-07-09T14:20:11;7.95;;;5.68;;
52542;SDS011;38449;52.696;6.186;2023-07-09T14:22:38;9.82;;;5.95;;
52542;SDS011;38449;52.696;6.186;2023-07-09T14:25:05;7.88;;;5.70;;
52542;SDS011;38449;52.696;6.186;2023-07-09T14:27:32;10.00;;;6.70;;
52542;SDS011;38449;52.696;6.186;2023-07-09T14:29:58;9.63;;;5.97;;
52542;SDS011;38449;52.696;6.186;2023-07-09T14:32:29;10.35;;;6.22;;
52542;SDS011;38449;52.696;6.186;2023-07-09T14:34:56;13.68;;;6.55;;
52542;SDS011;38449;52.696;6.186;2023-07-09T14:37:23;14.35;;;6.95;;
52542;SDS011;38449;52.696;6.186;2023-07-09T14:39:49;12.95;;;7.40;;
52542;SDS011;38449;52.696;6.186;2023-07-09T14:42:15;12.57;;;6.88;;
52542;SDS011;38449;52.696;6.186;2023-07-09T14:44:42;15.30;;;7.15;;
52542;SDS011;38449;52.696;6.186;2023-07-09T14:47:14;16.70;;;8.48;;
52542;SDS011;38449;52.696;6.186;2023-07-09T14:49:45;13.35;;;7.57;;
52542;SDS011;38449;52.696;6.186;2023-07-09T14:52:12;9.98;;;6.18;;
52542;SDS011;38449;52.696;6.186;2023-07-09T14:54:41;9.90;;;6.72;;
52542;SDS011;38449;52.696;6.186;2023-07-09T14:57:08;10.95;;;6.53;;
52542;SDS011;38449;52.696;6.186;2023-07-09T14:59:48;10.65;;;6.80;;
52542;SDS011;38449;52.696;6.186;2023-07-09T15:02:22;8.93;;;6.88;;
52542;SDS011;38449;52.696;6.186;2023-07-09T15:04:57;11.30;;;6.80;;
52542;SDS011;38449;52.696;6.186;2023-07-09T15:07:30;7.20;;;6.45;;
52542;SDS011;38449;52.696;6.186;2023-07-09T15:09:57;8.60;;;6.20;;
52542;SDS011;38449;52.696;6.186;2023-07-09T15:12:31;9.23;;;5.95;;
52542;SDS011;38449;52.696;6.186;2023-07-09T15:15:01;8.13;;;6.53;;
52542;SDS011;38449;52.696;6.186;2023-07-09T15:17:49;8.07;;;6.07;;
52542;SDS011;38449;52.696;6.186;2023-07-09T15:20:19;6.63;;;5.78;;
52542;SDS011;38449;52.696;6.186;2023-07-09T15:22:51;7.68;;;5.85;;
52542;SDS011;38449;52.696;6.186;2023-07-09T15:25:24;8.73;;;5.90;;
52542;SDS011;38449;52.696;6.186;2023-07-09T15:27:53;7.90;;;6.22;;
52542;SDS011;38449;52.696;6.186;2023-07-09T15:30:21;9.05;;;6.18;;